createdAt,value
2024-01-17T00:03:40.566Z,9
2024-01-17T00:09:40.789Z,9
2024-01-17T00:21:40.467Z,9
2024-01-17T00:39:41.386Z,8
2024-01-17T00:45:40.519Z,8
2024-01-17T00:51:40.957Z,8
2024-01-17T00:57:40.825Z,8
2024-01-17T01:03:40.700Z,9
2024-01-17T01:09:40.950Z,9
2024-01-17T01:15:41.093Z,9
2024-01-17T01:21:40.556Z,9
2024-01-17T01:27:40.734Z,9
2024-01-17T01:39:41.498Z,9
2024-01-17T01:45:41.438Z,8
2024-01-17T01:51:40.868Z,9
2024-01-17T01:57:40.497Z,9
2024-01-17T02:03:40.925Z,9
2024-01-17T02:09:41.061Z,9
2024-01-17T02:15:41.463Z,9
2024-01-17T02:21:41.969Z,9
2024-01-17T02:39:41.254Z,9
2024-01-17T02:51:41.298Z,9
2024-01-17T02:57:40.929Z,9
2024-01-17T03:03:40.851Z,9
2024-01-17T03:09:41.237Z,9
2024-01-17T03:15:41.114Z,10
2024-01-17T03:21:41.341Z,9
2024-01-17T03:27:42.224Z,9
2024-01-17T03:39:41.076Z,9
2024-01-17T03:51:41.728Z,9
2024-01-17T03:57:41.099Z,9
2024-01-17T04:03:42.685Z,9
2024-01-17T04:09:42.053Z,9
2024-01-17T04:15:41.784Z,9
2024-01-17T04:21:41.653Z,9
2024-01-17T04:27:41.631Z,9
2024-01-17T04:33:41.543Z,9
2024-01-17T04:39:41.394Z,9
2024-01-17T04:45:41.613Z,10
2024-01-17T04:57:41.359Z,9
2024-01-17T05:03:41.916Z,10
2024-01-17T05:09:41.009Z,9
2024-01-17T05:15:41.738Z,9
2024-01-17T05:21:41.483Z,9
2024-01-17T05:27:41.073Z,9
2024-01-17T05:33:41.510Z,9
2024-01-17T05:39:42.027Z,9
2024-01-17T05:45:40.800Z,9
2024-01-17T05:51:41.762Z,8
2024-01-17T06:09:41.323Z,9
2024-01-17T06:15:41.989Z,9
2024-01-17T06:21:41.644Z,8
2024-01-17T06:27:41.380Z,8
2024-01-17T06:39:41.076Z,7
2024-01-17T06:45:41.406Z,8
2024-01-17T06:51:42.119Z,8
2024-01-17T06:57:42.199Z,8
2024-01-17T07:09:42.123Z,7
2024-01-17T07:21:42.331Z,8
2024-01-17T07:27:41.270Z,9
2024-01-17T07:33:41.932Z,8
2024-01-17T07:39:41.837Z,8
2024-01-17T07:45:41.566Z,9
2024-01-17T07:51:41.794Z,9
2024-01-17T07:57:41.612Z,8
2024-01-17T08:03:42.052Z,9
2024-01-17T08:09:41.538Z,10
2024-01-17T08:15:41.274Z,8
2024-01-17T08:21:42.236Z,10
2024-01-17T08:27:42.083Z,9
2024-01-17T08:39:41.293Z,10
2024-01-17T08:45:41.441Z,9
2024-01-17T08:51:41.995Z,10
2024-01-17T08:57:41.543Z,10
2024-01-17T09:03:42.547Z,10
2024-01-17T09:09:41.792Z,10
2024-01-17T09:15:41.557Z,10
2024-01-17T09:21:42.181Z,10
2024-01-17T09:27:41.856Z,11
2024-01-17T09:39:41.806Z,11
2024-01-17T09:45:42.348Z,11
2024-01-17T09:51:42.678Z,12
2024-01-17T09:57:41.310Z,12
2024-01-17T10:03:42.274Z,11
2024-01-17T10:09:42.226Z,12
2024-01-17T10:15:42.664Z,11
2024-01-17T10:21:41.443Z,11
2024-01-17T10:27:42.552Z,11
2024-01-17T10:33:42.447Z,12
2024-01-17T10:39:41.514Z,12
2024-01-17T10:45:41.731Z,12
2024-01-17T10:51:42.369Z,11
2024-01-17T10:57:42.045Z,11
2024-01-17T11:03:42.527Z,12
2024-01-17T11:09:41.491Z,11
2024-01-17T11:15:42.125Z,11
2024-01-17T11:21:42.036Z,10
2024-01-17T11:30:41.368Z,12
2024-01-17T11:36:41.485Z,12
2024-01-17T11:42:41.639Z,12
2024-01-17T11:48:42.427Z,12
2024-01-17T11:54:41.503Z,13
2024-01-17T12:00:47.675Z,12
2024-01-17T12:06:41.780Z,12
2024-01-17T12:12:41.938Z,13
2024-01-17T12:18:42.260Z,11
2024-01-17T12:24:50.486Z,11
2024-01-17T12:30:52.506Z,13
2024-01-17T12:36:43.072Z,12
2024-01-17T12:42:42.414Z,12
2024-01-17T12:48:42.657Z,12
2024-01-17T12:54:41.714Z,13
2024-01-17T13:00:52.356Z,12
2024-01-17T13:06:42.845Z,12
2024-01-17T13:12:41.771Z,12
2024-01-17T13:18:42.858Z,13
2024-01-17T13:24:42.695Z,12
2024-01-17T13:30:48.099Z,12
2024-01-17T13:36:42.297Z,12
2024-01-17T13:42:41.901Z,11
2024-01-17T13:48:42.682Z,11
2024-01-17T13:54:42.062Z,13
2024-01-17T14:00:48.794Z,12
2024-01-17T14:06:42.676Z,13
2024-01-17T14:12:42.317Z,12
2024-01-17T14:18:43.029Z,12
2024-01-17T14:24:42.152Z,12
2024-01-17T14:30:50.252Z,11
2024-01-17T14:36:42.779Z,12
2024-01-17T14:42:42.274Z,12
2024-01-17T14:48:42.295Z,13
2024-01-17T14:54:42.075Z,12
2024-01-17T15:00:49.415Z,14
2024-01-17T15:06:43.723Z,16
2024-01-17T15:12:42.436Z,14
2024-01-17T15:18:42.984Z,14
2024-01-17T15:24:42.566Z,33
2024-01-17T15:30:49.764Z,24
2024-01-17T15:36:42.599Z,20
2024-01-17T15:42:42.701Z,18
2024-01-17T15:48:42.763Z,14
2024-01-17T15:54:42.880Z,15
2024-01-17T16:00:51.881Z,15
2024-01-17T16:06:43.660Z,14
2024-01-17T16:12:42.626Z,13
2024-01-17T16:18:42.671Z,14
2024-01-17T16:24:42.898Z,13
2024-01-17T16:30:45.495Z,12
2024-01-17T16:36:42.258Z,13
2024-01-17T16:42:42.578Z,12
2024-01-17T16:48:43.774Z,13
2024-01-17T16:54:42.665Z,13
2024-01-17T17:00:49.143Z,14
2024-01-17T17:06:42.914Z,14
2024-01-17T17:12:42.335Z,16
2024-01-17T17:18:43.483Z,16
2024-01-17T17:24:43.081Z,17
2024-01-17T17:30:47.943Z,17
2024-01-17T17:36:42.949Z,17
2024-01-17T17:42:42.750Z,16
2024-01-17T17:48:47.097Z,16
2024-01-17T17:54:42.593Z,19
2024-01-17T18:00:50.730Z,19
2024-01-17T18:06:43.017Z,17
2024-01-17T18:12:42.786Z,13
2024-01-17T18:24:43.169Z,11
2024-01-17T18:30:47.632Z,10
2024-01-17T18:36:42.368Z,9
2024-01-17T18:42:42.319Z,10
2024-01-17T18:48:42.874Z,10
2024-01-17T18:54:42.729Z,9
2024-01-17T19:00:49.760Z,11
2024-01-17T19:06:44.869Z,10
2024-01-17T19:12:43.101Z,11
2024-01-17T19:18:43.231Z,10
2024-01-17T19:24:43.158Z,10
2024-01-17T19:30:42.577Z,10
2024-01-17T19:36:42.791Z,11
2024-01-17T19:42:42.912Z,11
2024-01-17T19:48:43.707Z,12
2024-01-17T19:54:43.264Z,12
2024-01-17T20:00:48.987Z,12
2024-01-17T20:06:43.761Z,13
2024-01-17T20:12:43.340Z,14
2024-01-17T20:18:42.748Z,13
2024-01-17T20:24:44.993Z,12
2024-01-17T20:30:43.806Z,12
2024-01-17T20:36:43.519Z,13
2024-01-17T20:42:43.567Z,11
2024-01-17T20:48:42.457Z,11
2024-01-17T20:54:42.853Z,10
2024-01-17T21:00:48.204Z,10
2024-01-17T21:06:42.918Z,10
2024-01-17T21:12:42.333Z,10
2024-01-17T21:18:42.941Z,9
2024-01-17T21:24:43.006Z,9
2024-01-17T21:30:47.767Z,8
2024-01-17T21:36:43.852Z,7
2024-01-17T21:42:42.883Z,7
2024-01-17T21:48:43.211Z,7
2024-01-17T21:54:42.631Z,6
2024-01-17T22:00:52.202Z,5
2024-01-17T22:06:42.596Z,7
2024-01-17T22:12:42.936Z,6
2024-01-17T22:18:43.193Z,7
2024-01-17T22:24:43.173Z,7
2024-01-17T22:30:42.461Z,7
2024-01-17T22:36:42.814Z,7
2024-01-17T22:42:43.168Z,8
2024-01-17T22:48:42.451Z,9
2024-01-17T22:54:42.451Z,11
2024-01-17T23:01:00.543Z,11
2024-01-17T23:06:42.805Z,11
2024-01-17T23:12:43.125Z,11
2024-01-17T23:18:42.544Z,10
2024-01-17T23:24:42.770Z,11
2024-01-17T23:30:52.878Z,11
2024-01-17T23:36:43.197Z,11
2024-01-17T23:42:42.809Z,13
2024-01-17T23:48:43.453Z,16
2024-01-17T23:54:42.531Z,15
